Time;durP1;ratioP1;P1;durP2;ratioP2;P2;SDS_P1;SDS_P2;PMS_P1;PMS_P2;Temp;Humidity;BMP_temperature;BMP_pressure;BME280_temperature;BME280_humidity;BME280_pressure;Samples;Min_cycle;Max_cycle;Signal;HPM_P1;HPM_P2
2023/05/08 00:00:09;;;;;;;3.30;2.50;;;;;;;8.68;45.51;100720.15;105956;1256;69006;-83
2023/05/08 00:02:39;;;;;;;5.00;2.30;;;;;;;8.66;45.43;100718.21;106087;1256;73909;-81
2023/05/08 00:05:06;;;;;;;5.60;2.70;;;;;;;8.63;45.29;100720.02;106210;1254;59710;-81
2023/05/08 00:07:36;;;;;;;5.10;2.90;;;;;;;8.61;45.42;100721.67;106291;1254;62675;-83
2023/05/08 00:10:06;;;;;;;5.50;3.20;;;;;;;8.57;45.43;100719.64;106184;1259;73421;-79
2023/05/08 00:12:33;;;;;;;5.80;2.70;;;;;;;8.55;45.59;100723.35;106831;1262;71111;-82
2023/05/08 00:15:01;;;;;;;3.80;2.60;;;;;;;8.54;45.61;100725.04;106406;1259;74848;-81
2023/05/08 00:17:27;;;;;;;5.00;2.60;;;;;;;8.52;45.64;100727.73;106095;1256;61699;-83
2023/05/08 00:19:55;;;;;;;4.20;2.50;;;;;;;8.48;45.59;100729.60;106569;1255;61570;-84
2023/05/08 00:22:22;;;;;;;6.30;3.20;;;;;;;8.44;45.87;100728.86;108040;1259;75257;-86
2023/05/08 00:24:49;;;;;;;3.90;2.00;;;;;;;8.40;45.69;100730.77;107682;1254;71285;-84
2023/05/08 00:27:16;;;;;;;4.30;2.60;;;;;;;8.38;45.75;100728.13;108732;1254;73880;-80
2023/05/08 00:29:43;;;;;;;3.30;2.60;;;;;;;8.37;45.65;100726.96;107438;1256;61585;-83
2023/05/08 00:32:10;;;;;;;4.30;2.60;;;;;;;8.37;45.77;100729.30;107051;1254;60938;-80
2023/05/08 00:34:37;;;;;;;3.80;2.60;;;;;;;8.36;45.62;100724.55;107995;1252;75207;-82
2023/05/08 00:37:04;;;;;;;3.60;2.40;;;;;;;8.38;45.70;100726.58;109140;1253;71210;-81
2023/05/08 00:39:30;;;;;;;5.00;2.80;;;;;;;8.39;45.57;100725.25;109235;1254;70854;-82
2023/05/08 00:41:57;;;;;;;4.20;2.40;;;;;;;8.40;45.77;100725.31;109319;1254;59505;-83
2023/05/08 00:44:24;;;;;;;5.20;2.70;;;;;;;8.41;45.71;100721.20;109079;1254;61193;-83
2023/05/08 00:46:51;;;;;;;5.20;2.50;;;;;;;8.45;45.67;100721.75;108821;1254;73889;-84
2023/05/08 00:49:21;;;;;;;6.00;2.40;;;;;;;8.47;45.74;100727.20;108113;1254;71193;-80
2023/05/08 00:51:49;;;;;;;3.90;2.40;;;;;;;8.49;45.78;100728.70;108343;1256;73629;-82
2023/05/08 00:54:16;;;;;;;5.00;2.80;;;;;;;8.50;45.77;100726.13;106172;1256;61270;-79
2023/05/08 00:56:43;;;;;;;5.80;2.50;;;;;;;8.50;45.96;100733.01;106089;1253;61077;-81
2023/05/08 00:59:11;;;;;;;3.40;2.60;;;;;;;8.51;45.89;100733.84;106144;1257;72997;-79
2023/05/08 01:01:38;;;;;;;3.10;2.60;;;;;;;8.51;45.98;100735.39;106170;1257;71528;-79
2023/05/08 01:04:05;;;;;;;5.30;3.20;;;;;;;8.50;46.14;100734.27;106200;1257;73571;-80
2023/05/08 01:06:38;;;;;;;3.20;2.40;;;;;;;8.50;46.21;100736.88;106124;1257;60866;-77
2023/05/08 01:09:06;;;;;;;3.70;2.20;;;;;;;8.48;46.05;100738.61;106121;1256;62585;-79
2023/05/08 01:12:02;;;;;;;3.30;2.30;;;;;;;8.45;46.16;100737.61;106015;1257;74250;-79
2023/05/08 01:14:58;;;;;;;3.60;2.60;;;;;;;8.41;46.17;100737.75;106108;1257;72095;-77
2023/05/08 01:17:50;;;;;;;3.50;2.50;;;;;;;8.39;46.11;100739.91;107459;1254;73069;-80
2023/05/08 01:20:39;;;;;;;3.90;2.30;;;;;;;8.35;46.09;100741.98;107419;1253;60273;-77
2023/05/08 01:23:06;;;;;;;3.30;2.50;;;;;;;8.32;46.26;100739.59;106218;1259;61154;-80
2023/05/08 01:25:45;;;;;;;4.20;2.60;;;;;;;8.28;46.15;100743.10;106924;1254;76176;-82
2023/05/08 01:28:42;;;;;;;5.00;3.10;;;;;;;8.24;46.28;100744.63;108276;1254;71363;-78
2023/05/08 01:31:20;;;;;;;2.90;2.20;;;;;;;8.21;46.12;100748.98;108810;1253;73627;-79
2023/05/08 01:34:11;;;;;;;3.20;2.30;;;;;;;8.20;46.32;100749.95;107800;1255;60712;-77
2023/05/08 01:37:01;;;;;;;4.90;2.50;;;;;;;8.20;46.41;100754.37;107884;1254;61294;-78
2023/05/08 01:39:46;;;;;;;3.70;2.70;;;;;;;8.18;46.61;100755.20;109420;1254;75533;-80
2023/05/08 01:42:58;;;;;;;4.60;2.60;;;;;;;8.19;46.66;100758.48;109431;1253;69116;-82
2023/05/08 01:45:27;;;;;;;4.00;2.40;;;;;;;8.20;46.74;100762.82;108889;1260;71190;-81
2023/05/08 01:48:02;;;;;;;3.30;2.60;;;;;;;8.19;46.65;100760.81;108962;1261;60894;-83
2023/05/08 01:50:31;;;;;;;3.60;2.40;;;;;;;8.18;46.75;100758.59;109189;1253;61468;-82
2023/05/08 01:53:12;;;;;;;4.10;2.60;;;;;;;8.17;46.69;100759.35;109450;1254;74871;-80
2023/05/08 01:55:39;;;;;;;4.60;2.30;;;;;;;8.19;46.64;100764.52;109228;1254;71502;-81
2023/05/08 01:58:08;;;;;;;3.50;2.20;;;;;;;8.19;46.74;100767.13;109269;1253;73877;-83
2023/05/08 02:00:36;;;;;;;4.00;2.20;;;;;;;8.19;46.84;100764.99;109501;1253;58080;-81
2023/05/08 02:03:04;;;;;;;7.70;2.90;;;;;;;8.19;46.76;100763.77;109331;1254;60902;-82
2023/05/08 02:05:31;;;;;;;3.30;2.30;;;;;;;8.19;46.71;100761.98;109344;1254;71660;-81
2023/05/08 02:07:58;;;;;;;5.60;2.60;;;;;;;8.20;46.71;100765.08;109203;1254;71084;-83
2023/05/08 02:10:25;;;;;;;6.80;2.60;;;;;;;8.21;46.70;100766.83;109315;1254;73378;-81
2023/05/08 02:12:52;;;;;;;3.20;2.70;;;;;;;8.21;46.87;100769.27;109301;1254;60359;-83
2023/05/08 02:15:19;;;;;;;3.70;2.70;;;;;;;8.20;46.79;100772.89;109175;1254;61248;-84
2023/05/08 02:17:47;;;;;;;6.00;2.40;;;;;;;8.21;46.85;100776.02;109286;1254;74460;-83
2023/05/08 02:20:14;;;;;;;3.10;2.50;;;;;;;8.21;46.93;100778.44;109277;1254;71300;-83
2023/05/08 02:22:49;;;;;;;4.80;2.60;;;;;;;8.20;46.98;100783.86;109249;1259;72424;-84
2023/05/08 02:25:16;;;;;;;4.40;2.50;;;;;;;8.18;47.00;100785.77;109351;1254;60213;-82
2023/05/08 02:27:47;;;;;;;3.70;2.80;;;;;;;8.16;47.04;100789.45;109302;1254;61828;-82
2023/05/08 02:30:24;;;;;;;3.90;2.30;;;;;;;8.15;47.05;100787.39;109354;1254;74560;-82
2023/05/08 02:32:52;;;;;;;6.00;2.60;;;;;;;8.15;47.19;100790.93;109458;1254;71531;-82
2023/05/08 02:35:19;;;;;;;3.10;2.50;;;;;;;8.15;47.31;100792.36;108982;1253;73571;-80
2023/05/08 02:37:54;;;;;;;4.30;2.80;;;;;;;8.15;47.28;100792.40;108606;1254;60485;-80
2023/05/08 02:40:22;;;;;;;5.20;2.70;;;;;;;8.13;47.32;100795.88;108798;1253;61216;-81
2023/05/08 02:42:50;;;;;;;4.00;2.50;;;;;;;8.12;47.32;100795.83;109173;1254;74746;-80
2023/05/08 02:45:17;;;;;;;4.20;2.30;;;;;;;8.12;47.54;100799.65;109066;1255;68924;-80
2023/05/08 02:48:07;;;;;;;3.20;2.40;;;;;;;8.12;47.36;100798.09;108750;1254;71559;-80
2023/05/08 02:50:37;;;;;;;3.20;2.50;;;;;;;8.12;47.59;100801.09;109173;1254;59102;-79
2023/05/08 02:53:07;;;;;;;5.80;2.90;;;;;;;8.13;47.60;100803.11;109012;1253;60274;-78
2023/05/08 02:55:53;;;;;;;5.00;2.60;;;;;;;8.13;47.63;100804.17;108799;1254;75540;-78
2023/05/08 02:58:28;;;;;;;4.30;2.50;;;;;;;8.15;47.47;100807.21;109042;1254;70871;-80
2023/05/08 03:01:10;;;;;;;3.20;2.30;;;;;;;8.16;47.40;100802.52;108928;1254;72645;-78
2023/05/08 03:03:39;;;;;;;3.20;2.40;;;;;;;8.17;47.45;100812.33;109042;1254;60426;-77
2023/05/08 03:06:10;;;;;;;3.70;2.70;;;;;;;8.17;47.53;100814.05;109511;1254;61368;-81
2023/05/08 03:08:36;;;;;;;4.80;2.70;;;;;;;8.18;47.43;100819.25;109337;1253;74570;-80
2023/05/08 03:11:36;;;;;;;8.20;2.60;;;;;;;8.20;47.50;100824.09;109348;1254;68881;-79
2023/05/08 03:14:03;;;;;;;5.40;2.70;;;;;;;8.20;47.39;100830.04;109207;1254;73558;-79
2023/05/08 03:16:31;;;;;;;4.70;3.10;;;;;;;8.22;47.36;100830.96;109340;1254;59653;-81
2023/05/08 03:19:04;;;;;;;3.60;2.50;;;;;;;8.24;47.40;100835.36;109141;1254;60172;-83
2023/05/08 03:21:31;;;;;;;5.70;2.60;;;;;;;8.27;47.40;100836.37;109115;1254;72887;-81
2023/05/08 03:23:59;;;;;;;2.80;2.60;;;;;;;8.28;47.15;100841.19;108048;1253;71502;-82
2023/05/08 03:26:26;;;;;;;4.00;2.40;;;;;;;8.28;47.17;100842.95;109077;1254;73944;-84
2023/05/08 03:28:53;;;;;;;6.80;2.60;;;;;;;8.31;47.23;100843.79;109241;1253;60328;-83
2023/05/08 03:31:24;;;;;;;3.90;2.50;;;;;;;8.35;47.21;100845.09;109188;1253;58790;-81
2023/05/08 03:33:52;;;;;;;7.50;2.70;;;;;;;8.36;47.11;100846.58;109372;1254;74786;-84
2023/05/08 03:36:21;;;;;;;5.50;3.00;;;;;;;8.39;46.88;100846.86;109344;1254;71088;-84
2023/05/08 03:38:48;;;;;;;5.00;2.40;;;;;;;8.41;46.76;100851.45;109391;1254;71453;-82
2023/05/08 03:41:14;;;;;;;6.20;2.60;;;;;;;8.43;46.93;100853.92;109133;1254;59421;-82
2023/05/08 03:43:41;;;;;;;5.20;2.70;;;;;;;8.48;46.87;100852.53;109138;1254;60976;-81
2023/05/08 03:46:08;;;;;;;5.10;2.80;;;;;;;8.51;46.82;100855.96;109310;1254;75102;-82
2023/05/08 03:48:35;;;;;;;4.30;2.30;;;;;;;8.57;46.73;100862.75;109486;1254;71414;-82
2023/05/08 03:51:03;;;;;;;10.80;3.30;;;;;;;8.60;46.73;100862.80;109362;1253;73018;-84
2023/05/08 03:53:33;;;;;;;5.80;2.70;;;;;;;8.65;46.55;100862.54;109393;1254;60743;-83
2023/05/08 03:56:01;;;;;;;5.90;3.10;;;;;;;8.67;46.35;100862.77;109277;1254;60164;-84
2023/05/08 03:58:41;;;;;;;6.60;3.00;;;;;;;8.69;46.26;100869.15;109129;1254;74973;-83
2023/05/08 04:01:11;;;;;;;7.20;3.10;;;;;;;8.73;46.03;100868.23;109009;1254;70802;-83
2023/05/08 04:03:47;;;;;;;4.80;2.60;;;;;;;8.78;46.31;100869.45;108949;1254;73849;-84
2023/05/08 04:06:20;;;;;;;3.80;2.30;;;;;;;8.83;46.09;100872.31;109174;1254;61357;-82
2023/05/08 04:09:14;;;;;;;3.60;2.80;;;;;;;8.87;45.99;100874.02;109137;1254;60909;-83
2023/05/08 04:11:59;;;;;;;5.10;2.50;;;;;;;8.88;45.70;100875.83;109209;1255;73650;-81
2023/05/08 04:14:34;;;;;;;7.20;2.80;;;;;;;8.92;45.62;100880.30;108754;1254;71219;-84
2023/05/08 04:17:05;;;;;;;6.10;2.90;;;;;;;8.95;45.46;100883.89;108958;1254;73510;-82
2023/05/08 04:19:40;;;;;;;4.80;2.90;;;;;;;9.00;45.32;100878.89;109040;1253;57960;-83
2023/05/08 04:22:07;;;;;;;4.50;2.50;;;;;;;9.04;45.16;100884.05;108854;1254;60465;-82
2023/05/08 04:24:40;;;;;;;3.90;2.60;;;;;;;9.06;45.11;100885.84;109181;1254;72466;-82
2023/05/08 04:27:08;;;;;;;4.00;2.80;;;;;;;9.08;45.03;100886.14;109050;1254;70504;-82
2023/05/08 04:29:35;;;;;;;3.00;2.10;;;;;;;9.12;44.86;100887.05;109275;1254;71216;-83
2023/05/08 04:32:04;;;;;;;4.40;2.60;;;;;;;9.16;45.00;100881.20;109341;1254;60968;-81
2023/05/08 04:34:31;;;;;;;3.90;2.40;;;;;;;9.21;44.68;100881.64;109282;1253;61016;-81
2023/05/08 04:36:58;;;;;;;3.30;2.30;;;;;;;9.27;44.73;100885.96;109214;1254;74363;-83
2023/05/08 04:39:25;;;;;;;3.30;2.60;;;;;;;9.31;44.59;100890.56;109128;1254;71575;-83
2023/05/08 04:41:54;;;;;;;5.70;2.70;;;;;;;9.35;44.43;100887.40;109107;1254;73998;-79
2023/05/08 04:44:28;;;;;;;4.50;2.60;;;;;;;9.38;44.30;100885.21;108870;1254;61386;-78
2023/05/08 04:46:55;;;;;;;5.30;2.40;;;;;;;9.42;44.23;100886.61;109014;1253;60365;-82
2023/05/08 04:49:22;;;;;;;7.10;2.80;;;;;;;9.47;44.34;100887.45;109072;1254;74521;-80
2023/05/08 04:51:49;;;;;;;7.60;2.90;;;;;;;9.51;44.26;100889.05;108350;1254;71375;-80
2023/05/08 04:54:15;;;;;;;5.00;2.60;;;;;;;9.54;44.25;100888.79;109119;1254;72547;-79
2023/05/08 04:56:43;;;;;;;4.50;2.70;;;;;;;9.55;44.05;100889.06;108911;1254;61167;-78
2023/05/08 04:59:10;;;;;;;5.30;2.80;;;;;;;9.53;44.19;100888.02;109122;1254;58924;-82
2023/05/08 05:01:38;;;;;;;5.30;2.90;;;;;;;9.51;44.41;100893.27;108861;1254;75113;-81
2023/05/08 05:04:06;;;;;;;5.10;2.80;;;;;;;9.48;44.50;100892.88;109104;1254;71159;-80
2023/05/08 05:06:34;;;;;;;4.90;2.70;;;;;;;9.47;44.47;100890.47;109063;1254;71170;-81
2023/05/08 05:09:02;;;;;;;5.40;2.70;;;;;;;9.50;44.54;100893.23;109021;1253;59280;-78
2023/05/08 05:11:29;;;;;;;4.80;2.80;;;;;;;9.52;44.40;100891.27;108926;1254;61151;-77
2023/05/08 05:13:56;;;;;;;3.60;2.80;;;;;;;9.53;44.74;100895.01;108745;1254;75104;-80
2023/05/08 05:16:23;;;;;;;4.20;3.10;;;;;;;9.57;44.87;100898.08;108895;1254;71293;-79
2023/05/08 05:18:50;;;;;;;3.70;2.90;;;;;;;9.59;44.81;100893.66;108997;1254;71626;-79
2023/05/08 05:21:20;;;;;;;5.30;2.80;;;;;;;9.60;44.86;100891.42;108961;1254;61379;-80
2023/05/08 05:23:47;;;;;;;5.70;2.70;;;;;;;9.67;44.87;100891.50;107485;1254;61342;-77
2023/05/08 05:26:18;;;;;;;6.00;2.90;;;;;;;9.74;44.82;100891.26;106150;1254;75150;-80
2023/05/08 05:28:46;;;;;;;3.50;2.80;;;;;;;9.79;45.10;100896.99;105933;1254;70163;-80
2023/05/08 05:31:14;;;;;;;6.30;3.10;;;;;;;9.83;45.05;100893.30;106861;1254;72830;-83
2023/05/08 05:33:41;;;;;;;3.90;3.00;;;;;;;9.83;44.94;100900.54;106707;1260;60421;-82
2023/05/08 05:36:08;;;;;;;4.30;2.60;;;;;;;9.85;45.28;100900.38;106126;1259;61008;-81
2023/05/08 05:38:35;;;;;;;6.50;3.70;;;;;;;9.90;45.25;100900.83;106165;1254;76062;-82
2023/05/08 05:41:03;;;;;;;8.40;3.60;;;;;;;9.92;45.47;100903.29;106140;1254;72159;-79
2023/05/08 05:43:30;;;;;;;4.50;3.50;;;;;;;9.95;45.48;100904.14;105802;1254;73822;-81
2023/05/08 05:46:03;;;;;;;5.20;3.30;;;;;;;9.98;45.44;100908.48;105904;1259;62098;-81
2023/05/08 05:48:30;;;;;;;5.00;2.90;;;;;;;10.02;45.28;100903.85;106092;1254;62132;-75
2023/05/08 05:50:57;;;;;;;6.50;3.30;;;;;;;10.05;45.38;100906.40;105674;1254;74607;-75
2023/05/08 05:53:24;;;;;;;6.00;3.10;;;;;;;10.08;45.25;100902.21;105636;1254;72326;-75
2023/05/08 05:55:51;;;;;;;6.10;3.30;;;;;;;10.10;45.43;100899.96;105745;1254;72150;-76
2023/05/08 05:58:18;;;;;;;7.00;3.60;;;;;;;10.13;45.47;100905.02;105676;1254;61472;-75
2023/05/08 06:00:46;;;;;;;4.30;2.80;;;;;;;10.16;45.46;100901.70;105624;1254;60473;-76
2023/05/08 06:03:13;;;;;;;5.40;2.50;;;;;;;10.20;45.64;100899.55;105701;1253;75825;-76
2023/05/08 06:05:41;;;;;;;5.00;2.80;;;;;;;10.23;45.43;100902.68;105968;1254;71562;-73
2023/05/08 06:08:08;;;;;;;6.10;3.10;;;;;;;10.26;45.54;100899.77;105817;1259;74988;-74
2023/05/08 06:10:36;;;;;;;4.10;2.40;;;;;;;10.30;45.46;100901.77;105741;1254;61510;-72
2023/05/08 06:13:03;;;;;;;3.30;2.40;;;;;;;10.36;45.32;100903.45;105753;1254;60706;-74
2023/05/08 06:15:30;;;;;;;7.00;2.90;;;;;;;10.38;45.36;100901.57;105768;1260;73712;-75
2023/05/08 06:17:57;;;;;;;4.70;2.70;;;;;;;10.42;45.40;100897.83;105735;1259;69025;-74
2023/05/08 06:20:25;;;;;;;3.90;2.70;;;;;;;10.47;45.47;100899.86;105888;1257;73421;-74
2023/05/08 06:22:52;;;;;;;5.00;3.00;;;;;;;10.57;45.60;100904.83;105749;1258;60550;-74
2023/05/08 06:25:19;;;;;;;3.70;2.90;;;;;;;10.66;45.06;100900.46;105801;1256;62562;-72
2023/05/08 06:27:46;;;;;;;3.10;2.50;;;;;;;10.72;45.01;100893.49;105766;1259;75707;-75
2023/05/08 06:30:13;;;;;;;5.70;2.80;;;;;;;10.79;44.93;100896.76;105810;1254;70082;-76
2023/05/08 06:32:40;;;;;;;5.10;2.90;;;;;;;10.88;44.93;100889.55;105656;1254;71050;-75
2023/05/08 06:35:07;;;;;;;5.80;3.10;;;;;;;11.00;44.51;100888.79;105626;1259;60735;-74
2023/05/08 06:37:34;;;;;;;5.10;3.10;;;;;;;11.12;44.33;100894.27;105663;1254;61161;-77
2023/05/08 06:40:01;;;;;;;6.10;3.10;;;;;;;11.21;44.20;100892.69;105721;1253;77379;-75
2023/05/08 06:42:38;;;;;;;5.40;3.20;;;;;;;11.30;43.76;100890.95;105871;1259;69923;-74
2023/05/08 06:45:07;;;;;;;5.80;3.00;;;;;;;11.37;43.48;100886.59;105606;1257;72918;-74
2023/05/08 06:47:33;;;;;;;6.90;2.90;;;;;;;11.49;43.37;100885.14;105824;1254;60914;-72
2023/05/08 06:50:00;;;;;;;4.10;2.90;;;;;;;11.60;43.18;100890.05;105902;1254;62420;-75
2023/05/08 06:52:27;;;;;;;5.20;2.90;;;;;;;11.71;43.00;100890.48;105812;1254;75194;-75
2023/05/08 06:54:54;;;;;;;6.30;3.10;;;;;;;11.80;42.77;100891.39;105804;1254;69283;-75
2023/05/08 06:57:23;;;;;;;4.80;3.00;;;;;;;11.83;43.00;100893.73;105817;1259;70885;-73
2023/05/08 06:59:49;;;;;;;6.60;3.50;;;;;;;11.87;43.04;100893.55;105703;1255;62190;-76
2023/05/08 07:02:16;;;;;;;4.80;3.20;;;;;;;11.92;42.75;100895.79;105771;1254;61479;-76
2023/05/08 07:04:43;;;;;;;3.80;3.40;;;;;;;11.93;42.47;100891.00;105762;1259;74696;-74
2023/05/08 07:07:11;;;;;;;6.40;4.20;;;;;;;11.94;42.75;100890.20;105817;1254;72500;-75
2023/05/08 07:09:39;;;;;;;4.40;2.90;;;;;;;11.98;42.58;100893.35;105553;1257;72008;-78
2023/05/08 07:12:07;;;;;;;4.70;3.20;;;;;;;11.99;42.49;100893.61;105785;1259;61335;-75
2023/05/08 07:14:34;;;;;;;4.70;3.10;;;;;;;12.04;42.51;100902.02;105918;1259;60996;-76
2023/05/08 07:17:05;;;;;;;6.60;3.60;;;;;;;12.11;42.02;100903.70;105679;1261;74188;-74
2023/05/08 07:19:35;;;;;;;9.90;4.30;;;;;;;12.15;42.04;100899.42;105663;1261;72384;-74
2023/05/08 07:22:02;;;;;;;3.60;2.80;;;;;;;12.16;42.01;100901.80;105899;1259;73809;-76
2023/05/08 07:24:29;;;;;;;6.00;3.20;;;;;;;12.22;42.06;100898.17;105805;1254;60471;-78
2023/05/08 07:26:56;;;;;;;5.60;3.10;;;;;;;12.27;42.01;100897.80;105795;1254;60600;-76
2023/05/08 07:29:23;;;;;;;9.70;3.80;;;;;;;12.37;42.06;100894.52;105663;1254;74569;-76
2023/05/08 07:31:50;;;;;;;8.10;3.70;;;;;;;12.48;41.82;100895.98;105858;1254;68688;-76
2023/05/08 07:34:18;;;;;;;5.00;2.80;;;;;;;12.52;41.51;100893.27;105579;1257;74562;-75
2023/05/08 07:36:45;;;;;;;6.80;3.70;;;;;;;12.56;41.56;100893.19;105887;1254;60428;-75
2023/05/08 07:39:12;;;;;;;7.90;3.30;;;;;;;12.61;41.87;100898.04;105817;1254;61230;-73
2023/05/08 07:41:39;;;;;;;5.50;3.30;;;;;;;12.71;41.72;100895.48;105856;1260;75934;-75
2023/05/08 07:44:07;;;;;;;4.40;2.90;;;;;;;12.79;41.45;100894.45;105947;1257;72538;-75
2023/05/08 07:46:34;;;;;;;3.70;3.20;;;;;;;12.86;41.18;100892.67;105860;1259;74650;-75
2023/05/08 07:49:01;;;;;;;7.20;3.30;;;;;;;12.91;40.94;100895.17;105846;1259;60455;-74
2023/05/08 07:51:28;;;;;;;7.00;3.50;;;;;;;12.98;40.96;100893.46;105798;1253;60606;-75
2023/05/08 07:53:54;;;;;;;5.90;3.50;;;;;;;13.09;40.57;100894.08;105991;1257;75827;-74
2023/05/08 07:56:21;;;;;;;5.20;3.60;;;;;;;13.16;39.88;100890.89;105834;1259;71983;-74
2023/05/08 07:58:48;;;;;;;7.20;3.50;;;;;;;13.21;39.86;100892.92;105789;1254;75066;-75
2023/05/08 08:01:16;;;;;;;5.50;3.90;;;;;;;13.26;39.64;100888.80;105783;1254;62029;-74
2023/05/08 08:03:44;;;;;;;7.10;3.60;;;;;;;13.29;39.61;100888.31;105881;1254;62501;-75
2023/05/08 08:06:12;;;;;;;4.00;3.50;;;;;;;13.34;39.42;100881.80;105876;1258;73584;-76
2023/05/08 08:08:39;;;;;;;5.40;4.00;;;;;;;13.39;39.29;100878.95;105875;1254;70315;-76
2023/05/08 08:11:06;;;;;;;5.20;3.80;;;;;;;13.46;38.37;100882.55;105894;1254;72562;-73
2023/05/08 08:13:33;;;;;;;7.00;4.10;;;;;;;13.49;37.78;100880.83;105813;1254;60438;-75
2023/05/08 08:16:02;;;;;;;5.70;4.10;;;;;;;13.54;37.74;100883.42;105748;1254;60543;-76
2023/05/08 08:18:33;;;;;;;4.70;3.70;;;;;;;13.63;37.48;100892.01;105818;1259;75608;-76
2023/05/08 08:21:00;;;;;;;4.80;3.70;;;;;;;13.72;36.30;100891.26;105850;1254;72590;-76
2023/05/08 08:23:27;;;;;;;6.20;3.70;;;;;;;13.74;36.13;100892.99;105706;1257;75130;-75
2023/05/08 08:25:54;;;;;;;5.90;3.80;;;;;;;13.79;36.58;100886.00;105790;1254;61409;-76
2023/05/08 08:28:21;;;;;;;5.80;3.70;;;;;;;13.95;36.61;100887.75;105869;1254;60947;-75
2023/05/08 08:30:48;;;;;;;4.90;3.50;;;;;;;14.12;36.51;100887.74;105779;1254;75628;-75
2023/05/08 08:33:15;;;;;;;4.90;3.90;;;;;;;14.33;36.26;100884.98;105722;1259;71496;-76
2023/05/08 08:35:44;;;;;;;3.90;3.20;;;;;;;14.56;36.09;100877.64;105675;1259;73357;-76
2023/05/08 08:38:12;;;;;;;6.80;4.00;;;;;;;14.82;35.39;100873.30;105707;1254;61451;-75
2023/05/08 08:40:40;;;;;;;7.50;3.40;;;;;;;14.98;34.88;100873.45;105740;1254;61112;-76
2023/05/08 08:43:07;;;;;;;5.80;3.40;;;;;;;15.19;35.01;100875.84;105774;1254;73389;-75
2023/05/08 08:45:37;;;;;;;10.50;3.40;;;;;;;15.43;34.13;100868.54;105704;1259;71391;-76
2023/05/08 08:48:08;;;;;;;7.80;3.50;;;;;;;15.60;33.40;100866.47;105797;1257;74909;-77
2023/05/08 08:50:43;;;;;;;7.10;3.20;;;;;;;15.51;33.41;100869.17;105639;1254;60531;-75
2023/05/08 08:53:26;;;;;;;5.70;3.20;;;;;;;15.44;33.64;100872.08;105926;1254;61111;-75
2023/05/08 08:55:55;;;;;;;7.30;3.50;;;;;;;15.42;33.65;100866.49;105786;1254;75608;-75
2023/05/08 08:58:45;;;;;;;5.10;3.20;;;;;;;15.45;33.94;100870.36;106015;1260;71293;-80
2023/05/08 09:03:23;;;;;;;7.50;3.00;;;;;;;15.71;33.25;100867.84;103030;1290;601291;-77
2023/05/08 09:05:51;;;;;;;3.80;3.00;;;;;;;15.71;33.25;100865.35;105248;1267;61405;-79
2023/05/08 09:08:18;;;;;;;4.50;3.30;;;;;;;15.72;33.14;100867.16;105403;1267;62000;-80
2023/05/08 09:10:46;;;;;;;3.90;3.40;;;;;;;15.75;32.89;100863.82;105247;1268;74271;-81
2023/05/08 09:13:17;;;;;;;4.50;3.30;;;;;;;15.78;32.66;100866.55;105440;1271;69442;-79
2023/05/08 09:15:46;;;;;;;4.20;2.90;;;;;;;15.82;32.51;100874.67;105944;1260;73621;-78
2023/05/08 09:18:13;;;;;;;3.70;2.90;;;;;;;16.06;32.44;100868.55;106612;1254;175013;-80
2023/05/08 09:20:40;;;;;;;3.20;2.70;;;;;;;16.47;32.20;100868.45;106805;1257;62250;-80
2023/05/08 09:23:07;;;;;;;3.10;2.50;;;;;;;16.92;32.14;100869.30;106153;1258;74433;-80
2023/05/08 09:25:44;;;;;;;6.40;3.20;;;;;;;17.34;31.75;100862.88;105950;1260;71969;-78
2023/05/08 09:28:22;;;;;;;3.40;2.70;;;;;;;17.70;31.48;100868.15;105929;1258;74604;-80
2023/05/08 09:30:51;;;;;;;5.70;3.40;;;;;;;18.07;31.11;100864.85;105957;1254;61123;-79
2023/05/08 09:33:19;;;;;;;8.10;3.80;;;;;;;18.43;30.64;100861.13;106043;1254;60480;-79
2023/05/08 09:35:47;;;;;;;4.60;3.10;;;;;;;18.89;30.32;100856.98;106127;1257;73954;-80
2023/05/08 09:38:36;;;;;;;3.60;3.20;;;;;;;19.37;29.65;100856.77;106834;1254;72320;-77
2023/05/08 09:41:10;;;;;;;3.80;2.90;;;;;;;19.74;28.77;100849.63;106466;1254;75328;-79
2023/05/08 09:43:37;;;;;;;3.90;2.70;;;;;;;19.93;28.66;100848.75;106754;1254;61258;-80
2023/05/08 09:46:24;;;;;;;3.40;3.10;;;;;;;19.99;28.53;100851.91;105815;1254;60395;-72
2023/05/08 09:48:56;;;;;;;3.20;2.80;;;;;;;19.84;28.56;100856.97;105981;1254;73182;-75
2023/05/08 09:51:24;;;;;;;5.40;3.20;;;;;;;19.50;28.53;100851.69;105877;1255;72332;-75
2023/05/08 09:53:52;;;;;;;5.10;3.00;;;;;;;19.09;29.08;100855.44;105839;1255;74356;-74
2023/05/08 09:56:48;;;;;;;4.90;3.10;;;;;;;18.78;29.31;100856.07;105710;1254;62478;-75
2023/05/08 09:59:41;;;;;;;6.50;3.00;;;;;;;18.40;29.35;100852.08;105651;1260;59807;-75
2023/05/08 10:02:09;;;;;;;3.90;2.80;;;;;;;17.99;29.87;100850.70;105814;1260;74973;-75
2023/05/08 10:04:36;;;;;;;6.00;2.50;;;;;;;17.78;30.16;100848.20;105700;1255;70898;-75
2023/05/08 10:07:03;;;;;;;7.00;2.90;;;;;;;17.63;30.33;100849.34;105635;1263;73716;-75
2023/05/08 10:09:30;;;;;;;4.40;3.10;;;;;;;17.46;30.35;100844.89;105492;1262;59812;-75
2023/05/08 10:12:13;;;;;;;7.00;3.00;;;;;;;17.26;30.55;100849.27;106089;1256;62154;-75
2023/05/08 10:14:39;;;;;;;6.40;3.10;;;;;;;17.07;30.66;100849.40;105872;1254;75222;-75
2023/05/08 10:17:08;;;;;;;3.80;3.00;;;;;;;16.89;30.83;100850.67;105833;1260;71069;-76
2023/05/08 10:19:35;;;;;;;4.80;2.80;;;;;;;16.66;30.89;100853.55;105753;1255;73973;-75
2023/05/08 10:22:01;;;;;;;4.60;2.80;;;;;;;16.45;31.01;100851.70;105809;1254;61094;-73
2023/05/08 10:24:32;;;;;;;6.00;2.90;;;;;;;16.23;31.20;100854.23;105991;1257;61348;-76
2023/05/08 10:27:30;;;;;;;4.00;3.20;;;;;;;16.04;31.58;100852.19;105893;1254;74259;-76
2023/05/08 10:30:00;;;;;;;5.20;3.10;;;;;;;15.88;31.69;100849.45;105927;1260;71252;-74
2023/05/08 10:32:27;;;;;;;5.50;2.80;;;;;;;15.80;31.80;100839.92;106021;1256;75147;-77
2023/05/08 10:34:57;;;;;;;4.60;2.90;;;;;;;15.80;32.01;100839.56;105986;1259;61001;-74
2023/05/08 10:37:24;;;;;;;6.30;3.00;;;;;;;15.80;32.06;100835.20;105985;1257;59916;-74
2023/05/08 10:39:51;;;;;;;6.60;3.30;;;;;;;15.81;32.00;100837.80;105868;1254;73991;-76
2023/05/08 10:42:18;;;;;;;4.50;2.60;;;;;;;15.82;32.03;100835.19;105808;1253;71128;-78
2023/05/08 10:44:45;;;;;;;4.10;2.80;;;;;;;15.82;32.28;100835.15;105848;1254;74860;-76
2023/05/08 10:47:21;;;;;;;3.60;3.10;;;;;;;15.87;32.54;100840.31;105975;1253;62440;-76
2023/05/08 10:50:01;;;;;;;6.70;3.10;;;;;;;15.99;32.37;100838.73;105937;1255;60602;-76
2023/05/08 10:52:34;;;;;;;4.50;2.80;;;;;;;16.21;32.15;100840.91;105954;1254;75068;-74
2023/05/08 10:55:07;;;;;;;5.10;3.30;;;;;;;16.35;31.78;100847.33;105995;1254;72243;-73
2023/05/08 10:57:34;;;;;;;5.10;2.80;;;;;;;16.45;31.86;100848.98;105934;1254;74804;-76
2023/05/08 11:00:01;;;;;;;6.30;3.80;;;;;;;16.55;31.75;100852.73;105745;1259;61981;-75
2023/05/08 11:02:30;;;;;;;5.90;3.30;;;;;;;16.54;31.53;100852.23;105968;1257;62244;-74
2023/05/08 11:05:15;;;;;;;6.60;3.40;;;;;;;16.51;31.54;100848.87;106059;1257;74910;-73
2023/05/08 11:08:00;;;;;;;3.20;2.70;;;;;;;16.49;31.47;100856.77;105901;1258;69388;-75
2023/05/08 11:10:36;;;;;;;6.00;3.20;;;;;;;16.62;31.49;100856.83;105638;1262;72516;-77
2023/05/08 11:13:02;;;;;;;6.80;3.20;;;;;;;16.79;31.48;100849.68;105943;1254;62571;-75
2023/05/08 11:15:37;;;;;;;4.30;3.10;;;;;;;16.94;31.37;100857.74;105830;1253;60618;-75
2023/05/08 11:18:10;;;;;;;5.60;3.30;;;;;;;17.08;31.03;100855.55;105859;1259;73062;-76
2023/05/08 11:20:38;;;;;;;;;;;;;;;17.18;31.05;100849.05;105982;1254;70537;-75
2023/05/08 11:23:31;;;;;;;6.60;2.90;;;;;;;17.29;30.94;100844.14;105939;1254;73913;-73
2023/05/08 11:26:01;;;;;;;6.20;4.10;;;;;;;17.41;30.94;100849.55;105892;1256;60089;-76
2023/05/08 11:28:32;;;;;;;6.50;3.60;;;;;;;17.61;30.90;100848.45;105914;1255;62417;-74
2023/05/08 11:31:04;;;;;;;6.70;3.80;;;;;;;17.76;30.70;100846.65;105947;1258;75149;-75
2023/05/08 11:33:31;;;;;;;6.10;3.00;;;;;;;17.76;30.52;100844.09;105996;1256;69925;-76
2023/05/08 11:36:00;;;;;;;6.80;3.10;;;;;;;17.59;30.13;100844.73;106020;1253;74978;-75
2023/05/08 11:38:32;;;;;;;5.50;3.60;;;;;;;17.37;30.42;100839.70;105752;1264;59603;-76